sensor_id;sensor_type;location;lat;lon;timestamp;temperature;humidity
3134;DHT22;1577;49.912;10.924;2023-09-18T08:38:05;25.60;99.90
3134;DHT22;1577;49.912;10.924;2023-09-18T08:40:33;25.80;99.90
3134;DHT22;1577;49.912;10.924;2023-09-18T08:42:59;26.30;99.90
3134;DHT22;1577;49.912;10.924;2023-09-18T08:55:16;26.90;99.90
3134;DHT22;1577;49.912;10.924;2023-09-18T08:57:42;27.70;99.90
3134;DHT22;1577;49.912;10.924;2023-09-18T09:00:10;27.50;99.90
3134;DHT22;1577;49.912;10.924;2023-09-18T09:02:42;27.40;99.90
3134;DHT22;1577;49.912;10.924;2023-09-18T09:05:07;27.40;99.90
3134;DHT22;1577;49.912;10.924;2023-09-18T09:07:33;27.30;99.90
3134;DHT22;1577;49.912;10.924;2023-09-18T09:09:59;27.20;99.90
3134;DHT22;1577;49.912;10.924;2023-09-18T09:12:54;27.00;99.90
3134;DHT22;1577;49.912;10.924;2023-09-18T09:16:04;26.90;99.90
3134;DHT22;1577;49.912;10.924;2023-09-18T09:18:12;27.10;99.90
3134;DHT22;1577;49.912;10.924;2023-09-18T09:20:38;27.40;99.90
3134;DHT22;1577;49.912;10.924;2023-09-18T09:23:06;27.60;99.90
3134;DHT22;1577;49.912;10.924;2023-09-18T09:25:35;28.20;99.90
3134;DHT22;1577;49.912;10.924;2023-09-18T09:28:03;28.40;99.90
3134;DHT22;1577;49.912;10.924;2023-09-18T09:30:31;28.70;99.90
3134;DHT22;1577;49.912;10.924;2023-09-18T09:32:58;29.10;99.90
3134;DHT22;1577;49.912;10.924;2023-09-18T09:35:36;29.30;99.90
3134;DHT22;1577;49.912;10.924;2023-09-18T09:40:34;29.70;99.90
3134;DHT22;1577;49.912;10.924;2023-09-18T09:43:00;29.90;99.90
3134;DHT22;1577;49.912;10.924;2023-09-18T09:45:29;29.80;99.70
3134;DHT22;1577;49.912;10.924;2023-09-18T09:47:56;29.40;99.00
3134;DHT22;1577;49.912;10.924;2023-09-18T09:50:23;29.20;99.50
3134;DHT22;1577;49.912;10.924;2023-09-18T09:52:51;29.20;99.00
3134;DHT22;1577;49.912;10.924;2023-09-18T09:55:31;29.00;99.30
3134;DHT22;1577;49.912;10.924;2023-09-18T09:58:00;28.70;99.50
3134;DHT22;1577;49.912;10.924;2023-09-18T10:00:30;28.40;99.50
3134;DHT22;1577;49.912;10.924;2023-09-18T10:03:03;28.10;99.90
3134;DHT22;1577;49.912;10.924;2023-09-18T10:05:35;28.00;99.80
3134;DHT22;1577;49.912;10.924;2023-09-18T10:08:23;27.90;99.90
3134;DHT22;1577;49.912;10.924;2023-09-18T10:11:06;27.80;99.90
3134;DHT22;1577;49.912;10.924;2023-09-18T10:13:47;27.70;99.90
3134;DHT22;1577;49.912;10.924;2023-09-18T10:16:17;27.70;99.90
3134;DHT22;1577;49.912;10.924;2023-09-18T10:21:30;27.50;99.80
3134;DHT22;1577;49.912;10.924;2023-09-18T10:24:13;27.40;99.90
3134;DHT22;1577;49.912;10.924;2023-09-18T10:26:50;27.30;99.90
3134;DHT22;1577;49.912;10.924;2023-09-18T10:29:18;27.30;99.90
3134;DHT22;1577;49.912;10.924;2023-09-18T10:31:45;27.40;99.90
3134;DHT22;1577;49.912;10.924;2023-09-18T10:34:13;27.50;99.90
3134;DHT22;1577;49.912;10.924;2023-09-18T10:36:41;27.60;99.90
3134;DHT22;1577;49.912;10.924;2023-09-18T10:39:09;27.70;99.20
3134;DHT22;1577;49.912;10.924;2023-09-18T10:41:38;27.70;99.20
3134;DHT22;1577;49.912;10.924;2023-09-18T10:44:05;27.50;98.80
3134;DHT22;1577;49.912;10.924;2023-09-18T10:46:31;27.50;98.70
3134;DHT22;1577;49.912;10.924;2023-09-18T10:48:59;27.40;98.90
3134;DHT22;1577;49.912;10.924;2023-09-18T10:51:26;27.30;98.50
3134;DHT22;1577;49.912;10.924;2023-09-18T10:53:52;27.10;98.30
3134;DHT22;1577;49.912;10.924;2023-09-18T10:56:21;27.10;98.40
3134;DHT22;1577;49.912;10.924;2023-09-18T10:58:56;27.10;98.90
3134;DHT22;1577;49.912;10.924;2023-09-18T11:01:23;27.10;98.90
3134;DHT22;1577;49.912;10.924;2023-09-18T11:03:50;27.20;99.30
3134;DHT22;1577;49.912;10.924;2023-09-18T11:06:15;27.30;99.40
3134;DHT22;1577;49.912;10.924;2023-09-18T11:08:48;27.40;99.40
3134;DHT22;1577;49.912;10.924;2023-09-18T11:11:18;27.40;99.00
3134;DHT22;1577;49.912;10.924;2023-09-18T11:13:51;27.50;98.70
3134;DHT22;1577;49.912;10.924;2023-09-18T11:18:54;27.60;98.10
3134;DHT22;1577;49.912;10.924;2023-09-18T11:21:31;27.30;97.60
3134;DHT22;1577;49.912;10.924;2023-09-18T11:24:01;27.10;98.20
3134;DHT22;1577;49.912;10.924;2023-09-18T11:26:33;26.80;97.60
3134;DHT22;1577;49.912;10.924;2023-09-18T11:29:08;26.50;98.30
3134;DHT22;1577;49.912;10.924;2023-09-18T11:34:26;26.00;99.60
3134;DHT22;1577;49.912;10.924;2023-09-18T11:36:57;25.70;99.90
3134;DHT22;1577;49.912;10.924;2023-09-18T11:39:40;25.50;99.90
3134;DHT22;1577;49.912;10.924;2023-09-18T11:42:18;25.40;99.90
3134;DHT22;1577;49.912;10.924;2023-09-18T11:44:45;25.10;99.90
3134;DHT22;1577;49.912;10.924;2023-09-18T11:47:23;25.10;99.90
3134;DHT22;1577;49.912;10.924;2023-09-18T11:49:59;24.90;99.90
3134;DHT22;1577;49.912;10.924;2023-09-18T11:52:29;24.80;99.90
3134;DHT22;1577;49.912;10.924;2023-09-18T11:54:57;24.70;99.90
3134;DHT22;1577;49.912;10.924;2023-09-18T11:57:23;24.60;99.90
3134;DHT22;1577;49.912;10.924;2023-09-18T11:59:49;24.50;99.90
3134;DHT22;1577;49.912;10.924;2023-09-18T12:02:29;24.20;99.90
3134;DHT22;1577;49.912;10.924;2023-09-18T12:05:13;23.90;99.90
3134;DHT22;1577;49.912;10.924;2023-09-18T12:07:40;23.60;99.90
3134;DHT22;1577;49.912;10.924;2023-09-18T12:10:11;23.40;99.90
3134;DHT22;1577;49.912;10.924;2023-09-18T12:12:36;23.10;99.90
3134;DHT22;1577;49.912;10.924;2023-09-18T12:15:02;22.90;99.90
3134;DHT22;1577;49.912;10.924;2023-09-18T12:17:29;22.70;99.90
3134;DHT22;1577;49.912;10.924;2023-09-18T12:19:55;22.40;99.90
3134;DHT22;1577;49.912;10.924;2023-09-18T12:22:28;22.10;99.90
3134;DHT22;1577;49.912;10.924;2023-09-18T12:24:54;21.90;99.90
3134;DHT22;1577;49.912;10.924;2023-09-18T12:27:35;21.60;99.90
3134;DHT22;1577;49.912;10.924;2023-09-18T12:30:02;21.40;99.90
3134;DHT22;1577;49.912;10.924;2023-09-18T12:32:30;21.20;99.90
3134;DHT22;1577;49.912;10.924;2023-09-18T12:34:57;21.10;99.90
3134;DHT22;1577;49.912;10.924;2023-09-18T12:37:23;21.00;99.90
3134;DHT22;1577;49.912;10.924;2023-09-18T12:39:48;21.00;99.90
3134;DHT22;1577;49.912;10.924;2023-09-18T12:42:20;21.00;99.90
3134;DHT22;1577;49.912;10.924;2023-09-18T12:44:47;21.00;99.90
3134;DHT22;1577;49.912;10.924;2023-09-18T12:47:14;21.00;99.90
3134;DHT22;1577;49.912;10.924;2023-09-18T12:49:39;20.90;99.90
3134;DHT22;1577;49.912;10.924;2023-09-18T12:52:05;20.90;99.90
3134;DHT22;1577;49.912;10.924;2023-09-18T12:54:39;21.00;99.90
3134;DHT22;1577;49.912;10.924;2023-09-18T12:57:05;21.00;99.90
3134;DHT22;1577;49.912;10.924;2023-09-18T12:59:35;21.00;99.90
3134;DHT22;1577;49.912;10.924;2023-09-18T13:02:02;21.00;99.90
3134;DHT22;1577;49.912;10.924;2023-09-18T13:04:32;21.00;99.90
3134;DHT22;1577;49.912;10.924;2023-09-18T13:07:09;20.90;99.90
3134;DHT22;1577;49.912;10.924;2023-09-18T13:09:35;21.00;99.90
3134;DHT22;1577;49.912;10.924;2023-09-18T13:12:03;20.90;99.90
3134;DHT22;1577;49.912;10.924;2023-09-18T13:14:29;20.90;99.90
3134;DHT22;1577;49.912;10.924;2023-09-18T13:17:00;20.80;99.90
3134;DHT22;1577;49.912;10.924;2023-09-18T13:19:29;20.80;99.90
3134;DHT22;1577;49.912;10.924;2023-09-18T13:21:55;20.80;99.90
3134;DHT22;1577;49.912;10.924;2023-09-18T13:24:30;20.90;99.90
3134;DHT22;1577;49.912;10.924;2023-09-18T13:26:57;20.80;99.90
3134;DHT22;1577;49.912;10.924;2023-09-18T13:29:24;20.80;99.90
3134;DHT22;1577;49.912;10.924;2023-09-18T13:31:50;20.70;99.90
3134;DHT22;1577;49.912;10.924;2023-09-18T13:34:16;20.80;99.90
3134;DHT22;1577;49.912;10.924;2023-09-18T13:36:46;20.60;99.90
3134;DHT22;1577;49.912;10.924;2023-09-18T13:39:13;20.60;99.90
3134;DHT22;1577;49.912;10.924;2023-09-18T13:41:42;20.70;99.90
3134;DHT22;1577;49.912;10.924;2023-09-18T13:44:08;20.70;99.90
3134;DHT22;1577;49.912;10.924;2023-09-18T13:46:35;20.80;99.90
3134;DHT22;1577;49.912;10.924;2023-09-18T13:49:03;20.70;99.90
3134;DHT22;1577;49.912;10.924;2023-09-18T13:51:33;20.60;99.90
3134;DHT22;1577;49.912;10.924;2023-09-18T13:53:58;20.60;99.90
3134;DHT22;1577;49.912;10.924;2023-09-18T13:56:24;20.50;99.90
3134;DHT22;1577;49.912;10.924;2023-09-18T13:58:56;20.40;99.90
3134;DHT22;1577;49.912;10.924;2023-09-18T14:01:25;20.30;99.90
3134;DHT22;1577;49.912;10.924;2023-09-18T14:03:52;20.20;99.90
3134;DHT22;1577;49.912;10.924;2023-09-18T14:06:18;20.00;99.90
3134;DHT22;1577;49.912;10.924;2023-09-18T14:08:44;20.00;99.90
3134;DHT22;1577;49.912;10.924;2023-09-18T14:11:09;19.90;99.90
3134;DHT22;1577;49.912;10.924;2023-09-18T14:13:35;19.90;99.90
3134;DHT22;1577;49.912;10.924;2023-09-18T14:16:01;19.90;99.90
3134;DHT22;1577;49.912;10.924;2023-09-18T14:18:29;19.80;99.90
3134;DHT22;1577;49.912;10.924;2023-09-18T14:20:55;19.80;99.90
3134;DHT22;1577;49.912;10.924;2023-09-18T14:23:20;19.80;99.90
3134;DHT22;1577;49.912;10.924;2023-09-18T14:25:46;19.80;99.90
3134;DHT22;1577;49.912;10.924;2023-09-18T14:28:11;19.80;99.90
3134;DHT22;1577;49.912;10.924;2023-09-18T14:30:39;19.80;99.90
3134;DHT22;1577;49.912;10.924;2023-09-18T14:33:04;19.70;99.90
3134;DHT22;1577;49.912;10.924;2023-09-18T14:35:30;19.80;99.90
3134;DHT22;1577;49.912;10.924;2023-09-18T14:37:55;19.80;99.90
3134;DHT22;1577;49.912;10.924;2023-09-18T14:40:21;19.80;99.90
3134;DHT22;1577;49.912;10.924;2023-09-18T14:42:47;19.70;99.90
3134;DHT22;1577;49.912;10.924;2023-09-18T14:45:12;19.70;99.90
3134;DHT22;1577;49.912;10.924;2023-09-18T14:47:38;19.80;99.90
3134;DHT22;1577;49.912;10.924;2023-09-18T14:50:05;19.70;99.90
3134;DHT22;1577;49.912;10.924;2023-09-18T14:52:31;19.70;99.90
3134;DHT22;1577;49.912;10.924;2023-09-18T14:54:57;19.80;99.90
3134;DHT22;1577;49.912;10.924;2023-09-18T14:57:23;19.70;99.90
3134;DHT22;1577;49.912;10.924;2023-09-18T14:59:49;19.70;99.90
3134;DHT22;1577;49.912;10.924;2023-09-18T15:02:15;19.70;99.90
3134;DHT22;1577;49.912;10.924;2023-09-18T15:04:41;19.70;99.90
3134;DHT22;1577;49.912;10.924;2023-09-18T15:07:07;19.80;99.90
3134;DHT22;1577;49.912;10.924;2023-09-18T15:09:33;19.80;99.90
3134;DHT22;1577;49.912;10.924;2023-09-18T15:11:59;19.90;99.90
3134;DHT22;1577;49.912;10.924;2023-09-18T15:14:24;19.90;99.90
3134;DHT22;1577;49.912;10.924;2023-09-18T15:16:50;19.80;99.90
3134;DHT22;1577;49.912;10.924;2023-09-18T15:19:16;19.80;99.90
3134;DHT22;1577;49.912;10.924;2023-09-18T15:21:42;19.90;99.90
3134;DHT22;1577;49.912;10.924;2023-09-18T15:24:09;20.00;99.90
3134;DHT22;1577;49.912;10.924;2023-09-18T15:26:35;20.10;99.90
3134;DHT22;1577;49.912;10.924;2023-09-18T15:29:00;20.30;99.90
3134;DHT22;1577;49.912;10.924;2023-09-18T15:31:27;20.50;99.90
3134;DHT22;1577;49.912;10.924;2023-09-18T15:33:52;20.50;99.90
3134;DHT22;1577;49.912;10.924;2023-09-18T15:36:20;20.40;99.90
3134;DHT22;1577;49.912;10.924;2023-09-18T15:38:46;20.30;99.90
3134;DHT22;1577;49.912;10.924;2023-09-18T15:41:12;20.40;99.90
3134;DHT22;1577;49.912;10.924;2023-09-18T15:43:42;20.50;99.90
3134;DHT22;1577;49.912;10.924;2023-09-18T15:46:09;20.30;99.90
3134;DHT22;1577;49.912;10.924;2023-09-18T15:48:35;20.30;99.90
3134;DHT22;1577;49.912;10.924;2023-09-18T15:51:01;20.20;99.90
3134;DHT22;1577;49.912;10.924;2023-09-18T15:53:27;20.10;99.90
3134;DHT22;1577;49.912;10.924;2023-09-18T15:55:52;20.10;99.90
3134;DHT22;1577;49.912;10.924;2023-09-18T15:58:18;20.10;99.90
3134;DHT22;1577;49.912;10.924;2023-09-18T16:00:46;20.10;99.90
3134;DHT22;1577;49.912;10.924;2023-09-18T16:03:11;19.90;99.90
3134;DHT22;1577;49.912;10.924;2023-09-18T16:05:37;19.90;99.90
3134;DHT22;1577;49.912;10.924;2023-09-18T16:08:03;19.80;99.90
3134;DHT22;1577;49.912;10.924;2023-09-18T16:10:29;19.70;99.90
3134;DHT22;1577;49.912;10.924;2023-09-18T16:12:55;19.80;99.90
3134;DHT22;1577;49.912;10.924;2023-09-18T16:15:20;19.70;99.90
3134;DHT22;1577;49.912;10.924;2023-09-18T16:17:46;19.60;99.90
3134;DHT22;1577;49.912;10.924;2023-09-18T16:20:12;19.60;99.90
3134;DHT22;1577;49.912;10.924;2023-09-18T16:22:38;19.60;99.90
3134;DHT22;1577;49.912;10.924;2023-09-18T16:25:07;19.70;99.90
3134;DHT22;1577;49.912;10.924;2023-09-18T16:27:33;19.70;99.90
3134;DHT22;1577;49.912;10.924;2023-09-18T16:29:59;19.80;99.90
3134;DHT22;1577;49.912;10.924;2023-09-18T16:32:28;19.60;99.90
3134;DHT22;1577;49.912;10.924;2023-09-18T16:34:54;19.60;99.90
3134;DHT22;1577;49.912;10.924;2023-09-18T16:37:22;19.50;99.90
3134;DHT22;1577;49.912;10.924;2023-09-18T16:39:48;19.50;99.90
3134;DHT22;1577;49.912;10.924;2023-09-18T16:42:13;19.50;99.90
3134;DHT22;1577;49.912;10.924;2023-09-18T16:44:39;19.50;99.90
3134;DHT22;1577;49.912;10.924;2023-09-18T16:47:12;19.50;99.90
3134;DHT22;1577;49.912;10.924;2023-09-18T16:49:37;19.40;99.90
3134;DHT22;1577;49.912;10.924;2023-09-18T16:52:03;19.40;99.90
3134;DHT22;1577;49.912;10.924;2023-09-18T16:54:29;19.30;99.90
3134;DHT22;1577;49.912;10.924;2023-09-18T16:56:56;19.30;99.90
3134;DHT22;1577;49.912;10.924;2023-09-18T16:59:22;19.30;99.90
3134;DHT22;1577;49.912;10.924;2023-09-18T17:01:52;19.30;99.90
3134;DHT22;1577;49.912;10.924;2023-09-18T17:04:17;19.30;99.90
3134;DHT22;1577;49.912;10.924;2023-09-18T17:06:43;19.20;99.90
3134;DHT22;1577;49.912;10.924;2023-09-18T17:09:09;19.10;99.90
3134;DHT22;1577;49.912;10.924;2023-09-18T17:11:35;19.10;99.90
3134;DHT22;1577;49.912;10.924;2023-09-18T17:14:00;19.00;99.90
3134;DHT22;1577;49.912;10.924;2023-09-18T17:16:26;19.00;99.90
3134;DHT22;1577;49.912;10.924;2023-09-18T17:18:52;18.80;99.90
3134;DHT22;1577;49.912;10.924;2023-09-18T17:21:25;18.70;99.90
3134;DHT22;1577;49.912;10.924;2023-09-18T17:23:51;18.70;99.90
3134;DHT22;1577;49.912;10.924;2023-09-18T17:26:17;18.60;99.90
3134;DHT22;1577;49.912;10.924;2023-09-18T17:28:43;18.60;99.90
3134;DHT22;1577;49.912;10.924;2023-09-18T17:31:08;18.50;99.90
3134;DHT22;1577;49.912;10.924;2023-09-18T17:33:34;18.50;99.90
3134;DHT22;1577;49.912;10.924;2023-09-18T17:36:01;18.40;99.90
3134;DHT22;1577;49.912;10.924;2023-09-18T17:38:27;18.30;99.90
3134;DHT22;1577;49.912;10.924;2023-09-18T17:40:52;18.30;99.90
3134;DHT22;1577;49.912;10.924;2023-09-18T17:43:18;18.20;99.90
3134;DHT22;1577;49.912;10.924;2023-09-18T17:45:44;18.10;99.90
3134;DHT22;1577;49.912;10.924;2023-09-18T17:48:09;18.10;99.90
3134;DHT22;1577;49.912;10.924;2023-09-18T17:50:35;18.10;99.90
3134;DHT22;1577;49.912;10.924;2023-09-18T17:53:00;18.00;99.90
3134;DHT22;1577;49.912;10.924;2023-09-18T17:55:27;18.00;99.90
3134;DHT22;1577;49.912;10.924;2023-09-18T17:57:52;17.90;99.90
3134;DHT22;1577;49.912;10.924;2023-09-18T18:00:18;17.90;99.90
3134;DHT22;1577;49.912;10.924;2023-09-18T18:02:44;17.80;99.90
3134;DHT22;1577;49.912;10.924;2023-09-18T18:05:11;17.80;99.90
3134;DHT22;1577;49.912;10.924;2023-09-18T18:07:37;17.70;99.90
3134;DHT22;1577;49.912;10.924;2023-09-18T18:10:05;17.70;99.90
3134;DHT22;1577;49.912;10.924;2023-09-18T18:12:33;17.60;99.90
3134;DHT22;1577;49.912;10.924;2023-09-18T18:14:59;17.60;99.90
3134;DHT22;1577;49.912;10.924;2023-09-18T18:17:24;17.60;99.90
3134;DHT22;1577;49.912;10.924;2023-09-18T18:19:50;17.60;99.90
3134;DHT22;1577;49.912;10.924;2023-09-18T18:22:15;17.60;99.90
3134;DHT22;1577;49.912;10.924;2023-09-18T18:24:43;17.50;99.90
3134;DHT22;1577;49.912;10.924;2023-09-18T18:27:09;17.50;99.90
3134;DHT22;1577;49.912;10.924;2023-09-18T18:29:35;17.50;99.90
3134;DHT22;1577;49.912;10.924;2023-09-18T18:32:03;17.40;99.90
3134;DHT22;1577;49.912;10.924;2023-09-18T18:34:29;17.40;99.90
3134;DHT22;1577;49.912;10.924;2023-09-18T18:36:57;17.30;99.90
3134;DHT22;1577;49.912;10.924;2023-09-18T18:39:24;17.30;99.90
3134;DHT22;1577;49.912;10.924;2023-09-18T18:41:50;17.30;99.90
3134;DHT22;1577;49.912;10.924;2023-09-18T18:44:16;17.40;99.90
3134;DHT22;1577;49.912;10.924;2023-09-18T18:46:41;17.40;99.90
3134;DHT22;1577;49.912;10.924;2023-09-18T18:49:10;17.40;99.90
3134;DHT22;1577;49.912;10.924;2023-09-18T18:51:36;17.30;99.90
3134;DHT22;1577;49.912;10.924;2023-09-18T18:54:04;17.20;99.90
3134;DHT22;1577;49.912;10.924;2023-09-18T18:56:29;17.20;99.90
3134;DHT22;1577;49.912;10.924;2023-09-18T18:58:55;17.20;99.90
3134;DHT22;1577;49.912;10.924;2023-09-18T19:01:23;17.30;99.90
3134;DHT22;1577;49.912;10.924;2023-09-18T19:03:50;17.30;99.90
3134;DHT22;1577;49.912;10.924;2023-09-18T19:06:16;17.20;99.90
3134;DHT22;1577;49.912;10.924;2023-09-18T19:08:41;17.10;99.90
3134;DHT22;1577;49.912;10.924;2023-09-18T19:11:08;17.10;99.90
3134;DHT22;1577;49.912;10.924;2023-09-18T19:13:37;17.10;99.90
3134;DHT22;1577;49.912;10.924;2023-09-18T19:16:10;17.00;99.90
3134;DHT22;1577;49.912;10.924;2023-09-18T19:18:41;17.10;99.90
3134;DHT22;1577;49.912;10.924;2023-09-18T19:21:07;17.00;99.90
3134;DHT22;1577;49.912;10.924;2023-09-18T19:23:35;17.00;99.90
3134;DHT22;1577;49.912;10.924;2023-09-18T19:26:01;17.00;99.90
3134;DHT22;1577;49.912;10.924;2023-09-18T19:28:29;17.00;99.90
3134;DHT22;1577;49.912;10.924;2023-09-18T19:30:58;17.00;99.90
3134;DHT22;1577;49.912;10.924;2023-09-18T19:33:25;17.00;99.90
3134;DHT22;1577;49.912;10.924;2023-09-18T19:35:54;17.00;99.90
3134;DHT22;1577;49.912;10.924;2023-09-18T19:38:20;17.00;99.90
3134;DHT22;1577;49.912;10.924;2023-09-18T19:40:50;17.00;99.90
3134;DHT22;1577;49.912;10.924;2023-09-18T19:43:16;17.00;99.90
3134;DHT22;1577;49.912;10.924;2023-09-18T19:45:42;17.00;99.90
3134;DHT22;1577;49.912;10.924;2023-09-18T19:48:08;17.00;99.90
3134;DHT22;1577;49.912;10.924;2023-09-18T19:50:34;17.00;99.90
3134;DHT22;1577;49.912;10.924;2023-09-18T19:53:00;16.90;99.90
3134;DHT22;1577;49.912;10.924;2023-09-18T19:55:26;17.00;99.90
3134;DHT22;1577;49.912;10.924;2023-09-18T19:57:59;16.90;99.90
3134;DHT22;1577;49.912;10.924;2023-09-18T20:00:25;16.90;99.90
3134;DHT22;1577;49.912;10.924;2023-09-18T20:02:51;16.90;99.90
3134;DHT22;1577;49.912;10.924;2023-09-18T20:05:18;16.90;99.90
3134;DHT22;1577;49.912;10.924;2023-09-18T20:07:44;16.90;99.90
3134;DHT22;1577;49.912;10.924;2023-09-18T20:10:10;17.00;99.90
3134;DHT22;1577;49.912;10.924;2023-09-18T20:12:51;17.00;99.90
3134;DHT22;1577;49.912;10.924;2023-09-18T20:15:18;16.90;99.90
3134;DHT22;1577;49.912;10.924;2023-09-18T20:17:44;16.90;99.90
3134;DHT22;1577;49.912;10.924;2023-09-18T20:20:12;16.90;99.90
3134;DHT22;1577;49.912;10.924;2023-09-18T20:22:39;16.90;99.90
3134;DHT22;1577;49.912;10.924;2023-09-18T20:25:06;17.00;99.90
3134;DHT22;1577;49.912;10.924;2023-09-18T20:27:35;17.00;99.90
3134;DHT22;1577;49.912;10.924;2023-09-18T20:30:05;16.90;99.90
3134;DHT22;1577;49.912;10.924;2023-09-18T20:32:31;17.00;99.90
3134;DHT22;1577;49.912;10.924;2023-09-18T20:34:58;17.00;99.90
3134;DHT22;1577;49.912;10.924;2023-09-18T20:37:24;17.00;99.90
3134;DHT22;1577;49.912;10.924;2023-09-18T20:39:50;17.20;99.90
3134;DHT22;1577;49.912;10.924;2023-09-18T20:42:17;17.10;99.90
3134;DHT22;1577;49.912;10.924;2023-09-18T20:44:43;17.10;99.90
3134;DHT22;1577;49.912;10.924;2023-09-18T20:47:09;17.00;99.90
3134;DHT22;1577;49.912;10.924;2023-09-18T20:49:34;17.00;99.90
3134;DHT22;1577;49.912;10.924;2023-09-18T20:52:00;17.00;99.90
3134;DHT22;1577;49.912;10.924;2023-09-18T20:54:25;17.00;99.90
3134;DHT22;1577;49.912;10.924;2023-09-18T20:56:51;17.20;99.90
3134;DHT22;1577;49.912;10.924;2023-09-18T20:59:17;17.10;99.90
3134;DHT22;1577;49.912;10.924;2023-09-18T21:01:42;17.10;99.90
3134;DHT22;1577;49.912;10.924;2023-09-18T21:04:09;17.10;99.90
3134;DHT22;1577;49.912;10.924;2023-09-18T21:06:34;17.00;99.90
3134;DHT22;1577;49.912;10.924;2023-09-18T21:09:00;17.10;99.90
3134;DHT22;1577;49.912;10.924;2023-09-18T21:11:26;17.10;99.90
3134;DHT22;1577;49.912;10.924;2023-09-18T21:13:52;17.00;99.90
3134;DHT22;1577;49.912;10.924;2023-09-18T21:16:18;17.10;99.90
3134;DHT22;1577;49.912;10.924;2023-09-18T21:18:44;17.10;99.90
3134;DHT22;1577;49.912;10.924;2023-09-18T21:21:11;17.20;99.90
3134;DHT22;1577;49.912;10.924;2023-09-18T21:23:37;17.10;99.90
3134;DHT22;1577;49.912;10.924;2023-09-18T21:26:06;17.10;99.90
3134;DHT22;1577;49.912;10.924;2023-09-18T21:28:31;17.10;99.90
3134;DHT22;1577;49.912;10.924;2023-09-18T21:31:11;17.10;99.90
3134;DHT22;1577;49.912;10.924;2023-09-18T21:33:38;17.10;99.90
3134;DHT22;1577;49.912;10.924;2023-09-18T21:36:16;17.00;99.90
3134;DHT22;1577;49.912;10.924;2023-09-18T21:38:42;17.00;99.90
3134;DHT22;1577;49.912;10.924;2023-09-18T21:41:08;16.90;99.90
3134;DHT22;1577;49.912;10.924;2023-09-18T21:43:34;17.00;99.90
3134;DHT22;1577;49.912;10.924;2023-09-18T21:46:01;17.00;99.90
3134;DHT22;1577;49.912;10.924;2023-09-18T21:48:26;17.10;99.90
3134;DHT22;1577;49.912;10.924;2023-09-18T21:50:52;17.00;99.90
3134;DHT22;1577;49.912;10.924;2023-09-18T21:53:18;16.90;99.90
3134;DHT22;1577;49.912;10.924;2023-09-18T21:55:44;17.00;99.90
3134;DHT22;1577;49.912;10.924;2023-09-18T21:58:10;16.90;99.90
3134;DHT22;1577;49.912;10.924;2023-09-18T22:00:35;16.80;99.90
3134;DHT22;1577;49.912;10.924;2023-09-18T22:03:06;16.90;99.90
3134;DHT22;1577;49.912;10.924;2023-09-18T22:05:31;16.80;99.90
3134;DHT22;1577;49.912;10.924;2023-09-18T22:07:57;17.00;99.90
3134;DHT22;1577;49.912;10.924;2023-09-18T22:10:24;17.00;99.90
3134;DHT22;1577;49.912;10.924;2023-09-18T22:12:49;16.90;99.90
3134;DHT22;1577;49.912;10.924;2023-09-18T22:15:15;17.00;99.90
3134;DHT22;1577;49.912;10.924;2023-09-18T22:17:40;16.90;99.90
3134;DHT22;1577;49.912;10.924;2023-09-18T22:20:07;16.90;99.90
3134;DHT22;1577;49.912;10.924;2023-09-18T22:22:35;16.80;99.90
3134;DHT22;1577;49.912;10.924;2023-09-18T22:25:01;16.70;99.90
3134;DHT22;1577;49.912;10.924;2023-09-18T22:27:26;16.60;99.90
3134;DHT22;1577;49.912;10.924;2023-09-18T22:29:52;16.80;99.90
3134;DHT22;1577;49.912;10.924;2023-09-18T22:32:18;16.70;99.90
3134;DHT22;1577;49.912;10.924;2023-09-18T22:34:49;16.80;99.90
3134;DHT22;1577;49.912;10.924;2023-09-18T22:37:20;16.80;99.90
3134;DHT22;1577;49.912;10.924;2023-09-18T22:56:27;16.40;99.90
3134;DHT22;1577;49.912;10.924;2023-09-18T22:58:53;16.40;99.90
3134;DHT22;1577;49.912;10.924;2023-09-18T23:01:20;16.30;99.90
3134;DHT22;1577;49.912;10.924;2023-09-18T23:03:46;16.30;99.90
3134;DHT22;1577;49.912;10.924;2023-09-18T23:06:13;16.20;99.90
3134;DHT22;1577;49.912;10.924;2023-09-18T23:08:39;16.30;99.90
3134;DHT22;1577;49.912;10.924;2023-09-18T23:11:06;16.20;99.90
3134;DHT22;1577;49.912;10.924;2023-09-18T23:13:32;16.20;99.90
3134;DHT22;1577;49.912;10.924;2023-09-18T23:16:00;16.20;99.90
3134;DHT22;1577;49.912;10.924;2023-09-18T23:18:26;16.20;99.90
3134;DHT22;1577;49.912;10.924;2023-09-18T23:20:52;16.20;99.90
3134;DHT22;1577;49.912;10.924;2023-09-18T23:23:19;16.20;99.90
3134;DHT22;1577;49.912;10.924;2023-09-18T23:25:46;16.20;99.90
3134;DHT22;1577;49.912;10.924;2023-09-18T23:28:12;16.20;99.90
3134;DHT22;1577;49.912;10.924;2023-09-18T23:30:37;16.20;99.90
3134;DHT22;1577;49.912;10.924;2023-09-18T23:33:03;16.20;99.90
3134;DHT22;1577;49.912;10.924;2023-09-18T23:35:30;16.20;99.90
3134;DHT22;1577;49.912;10.924;2023-09-18T23:38:04;16.20;99.90
3134;DHT22;1577;49.912;10.924;2023-09-18T23:40:32;16.20;99.90
3134;DHT22;1577;49.912;10.924;2023-09-18T23:43:02;16.20;99.90
3134;DHT22;1577;49.912;10.924;2023-09-18T23:45:36;16.20;99.90
3134;DHT22;1577;49.912;10.924;2023-09-18T23:48:09;16.20;99.90
3134;DHT22;1577;49.912;10.924;2023-09-18T23:50:37;16.20;99.90
3134;DHT22;1577;49.912;10.924;2023-09-18T23:53:05;16.20;99.90
3134;DHT22;1577;49.912;10.924;2023-09-18T23:55:35;16.10;99.90
3134;DHT22;1577;49.912;10.924;2023-09-18T23:58:01;16.10;99.90
